Aérodrome :
LOGIN :

S'inscrire | Disclaimer

   EN    FR    IT 

 










Légende :    VFR   VFR Marginal   IFR   IFR Intensif   IFR Très Intensif
Visi : 
Plafond : 
>= 8 km
>= 3000ft
5 à 8 km
1000 à 3000 ft
1500m à 5 km
500 à 1000 ft
800 à 1500m
200 à 500 ft
< 800m
< 200 ft
Symboles :   Orages  Brouillard  Fortes neiges  Fortes précipitations  Vent > 20 kt
SIGMETs :   Divers  Orages  Givrage  Turbulence  Onde Orograph.  Cendres Volcan.






- Altitude de l'aérodrome : 22 ft
- Code IATA : FSS


EGQK - RAF Kinloss

DERNIER METAR :
  • 081750Z AUTO 11004KT 9999 ///////// 06/05 Q1025 RERA

METARs EXPIRÉS :
  • 081650Z AUTO 07006KT 9999 -RADZ ///////// 06/06 Q1024
  • 081550Z 05009KT 2200 DZ OVC014 06/06 Q1023 YLO2

TAF AMD TAF EGQK
Valide du 08 à 16h jusqu'au 09 à 09h UTC


081601Z 0816/0909 06008KT 9999 FEW004 BKN025
TEMPO 0816/0818 4500 -RADZ SCT010 BKN015
PROB40
TEMPO 0816/0818 2000 RADZ SCT004



MET'MAP, la Météo Aéronautique d'un coup d'oeil ! - Copyright ORBIFLY Décembre 2007 - Disclaimer

ORBIFLY MET'MAP TEAM :

Programmation & Développement : Alexandra Zaïnal
Sur une idée originale de : Baudouin d'Aumeries
Assistance à la programmation : Marc-Olivier Méhu
Soutien technique & logistique : Manuel Goepfert

Contact : metmap@orbifly.com




SOURCES & CREDITS :

   NOAA